createdAt,value
2022-10-13T00:44:06.799Z,18.42
2022-10-13T00:47:00.048Z,18.45
2022-10-13T00:56:47.150Z,18.37
2022-10-13T00:59:45.201Z,18.39
2022-10-13T01:02:34.634Z,18.40
2022-10-13T01:05:41.250Z,18.46
2022-10-13T01:09:17.407Z,18.46
2022-10-13T01:27:16.516Z,18.41
2022-10-13T03:35:05.525Z,17.19
2022-10-13T03:38:30.532Z,17.16
2022-10-13T06:33:06.094Z,17.77
2022-10-13T06:35:34.793Z,17.84
2022-10-13T06:38:03.428Z,17.88
2022-10-13T06:40:32.285Z,17.94
2022-10-13T06:43:02.203Z,17.97
2022-10-13T06:46:18.006Z,17.95
2022-10-13T07:52:44.313Z,18.69
2022-10-13T07:55:15.749Z,18.76
2022-10-13T07:58:39.599Z,18.80
2022-10-13T08:01:20.378Z,18.88
2022-10-13T08:03:51.134Z,18.94
2022-10-13T08:06:31.581Z,19.03
2022-10-13T08:11:46.744Z,19.19
2022-10-13T08:17:20.776Z,19.24
2022-10-13T08:23:35.360Z,19.29
2022-10-13T08:26:18.952Z,19.39
2022-10-13T08:29:02.801Z,19.49
2022-10-13T08:32:06.197Z,19.52
2022-10-13T08:34:39.890Z,19.60
2022-10-13T08:37:08.060Z,19.61
2022-10-13T08:39:37.130Z,19.67
2022-10-13T08:42:18.578Z,19.70
2022-10-13T08:45:16.095Z,19.75
2022-10-13T08:48:48.170Z,19.85
2022-10-13T08:51:32.941Z,19.93
2022-10-13T08:55:09.236Z,20.00
2022-10-13T08:57:43.912Z,20.02
2022-10-13T09:00:32.582Z,20.06
2022-10-13T09:03:16.060Z,20.05
2022-10-13T09:06:07.747Z,20.11
2022-10-13T09:08:42.572Z,20.17
2022-10-13T09:11:13.882Z,20.29
2022-10-13T09:23:08.345Z,20.56
2022-10-13T09:33:52.816Z,20.74
2022-10-13T09:37:15.842Z,20.82
2022-10-13T09:39:44.098Z,20.95
2022-10-13T09:42:32.034Z,20.97
2022-10-13T09:45:34.738Z,20.99
2022-10-13T09:50:49.133Z,21.00
2022-10-13T09:53:25.904Z,21.04
2022-10-13T09:56:10.160Z,21.14
2022-10-13T10:01:22.356Z,21.36
2022-10-13T10:03:52.474Z,21.48
2022-10-13T10:06:28.078Z,21.60
2022-10-13T10:09:04.825Z,21.73
2022-10-13T10:11:40.237Z,21.80
2022-10-13T10:14:18.967Z,21.82
2022-10-13T10:16:58.679Z,21.83
2022-10-13T10:19:50.415Z,21.81
2022-10-13T10:22:35.984Z,21.77
2022-10-13T10:25:46.303Z,21.69
2022-10-13T10:28:45.649Z,21.62
2022-10-13T10:31:28.616Z,21.65
2022-10-13T10:34:07.304Z,21.65
2022-10-13T10:36:43.482Z,21.70
2022-10-13T10:39:28.169Z,21.71
2022-10-13T10:42:04.837Z,21.77
2022-10-13T10:44:55.602Z,21.85
2022-10-13T10:47:28.416Z,21.95
2022-10-13T10:50:08.555Z,21.94
2022-10-13T10:52:52.230Z,21.97
2022-10-13T10:58:33.607Z,21.93
2022-10-13T11:04:40.516Z,21.94
2022-10-13T11:07:15.055Z,21.93
2022-10-13T11:10:21.512Z,21.89
2022-10-13T11:13:26.409Z,21.91
2022-10-13T11:15:55.616Z,21.98
2022-10-13T11:19:06.082Z,22.05
2022-10-13T11:22:10.895Z,22.14
2022-10-13T11:24:54.578Z,22.31
2022-10-13T11:27:29.457Z,22.54
2022-10-13T11:30:01.358Z,22.74
2022-10-13T11:32:55.756Z,22.96
2022-10-13T11:35:29.871Z,23.19
2022-10-13T11:38:17.930Z,23.27
2022-10-13T11:41:06.147Z,23.28
2022-10-13T11:43:45.612Z,23.26
2022-10-13T11:46:27.911Z,23.24
2022-10-13T11:49:11.895Z,23.26
2022-10-13T11:52:07.143Z,23.17
2022-10-13T11:54:39.555Z,23.04
2022-10-13T11:57:20.220Z,22.79
2022-10-13T11:59:49.642Z,22.49
2022-10-13T12:02:20.141Z,22.28
2022-10-13T12:05:02.485Z,22.03
2022-10-13T12:07:36.634Z,21.97
2022-10-13T12:10:09.833Z,21.87
2022-10-13T12:12:46.976Z,21.68
2022-10-13T12:15:31.402Z,21.52
2022-10-13T12:18:01.243Z,21.48
2022-10-13T12:20:31.643Z,21.49
2022-10-13T12:23:02.130Z,21.41
2022-10-13T12:25:33.916Z,21.42
2022-10-13T12:28:03.675Z,21.56
2022-10-13T12:30:37.412Z,21.74
2022-10-13T12:33:24.113Z,22.01
2022-10-13T12:35:52.396Z,22.35
2022-10-13T12:38:22.367Z,22.72
2022-10-13T12:40:53.720Z,23.11
2022-10-13T12:43:26.639Z,23.44
2022-10-13T12:49:10.874Z,24.00
2022-10-13T12:51:41.848Z,24.21
2022-10-13T12:54:33.433Z,24.34
2022-10-13T12:57:08.536Z,24.47
2022-10-13T12:59:51.653Z,24.63
2022-10-13T13:02:27.296Z,24.78
2022-10-13T13:05:04.921Z,24.79
2022-10-13T13:07:54.767Z,24.77
2022-10-13T13:10:24.576Z,24.70
2022-10-13T13:12:55.759Z,24.60
2022-10-13T13:15:36.053Z,24.38
2022-10-13T13:18:36.250Z,24.13
2022-10-13T13:21:07.319Z,23.88
2022-10-13T13:23:37.054Z,23.56
2022-10-13T13:26:13.376Z,23.24
2022-10-13T13:28:47.795Z,22.94
2022-10-13T13:31:18.411Z,22.74
2022-10-13T13:33:47.948Z,22.55
2022-10-13T13:36:20.219Z,22.41
2022-10-13T13:38:51.625Z,22.37
2022-10-13T13:41:22.405Z,22.44
2022-10-13T13:43:52.177Z,22.55
2022-10-13T13:46:27.968Z,22.65
2022-10-13T13:48:58.035Z,22.82
2022-10-13T13:51:27.449Z,23.03
2022-10-13T13:54:08.632Z,23.16
2022-10-13T13:56:38.751Z,23.26
2022-10-13T13:59:08.360Z,23.29
2022-10-13T14:01:37.056Z,23.32
2022-10-13T14:04:05.843Z,23.36
2022-10-13T14:06:34.639Z,23.62
2022-10-13T14:09:05.495Z,23.69
2022-10-13T14:11:33.922Z,23.70
2022-10-13T14:14:05.491Z,23.60
2022-10-13T14:16:33.673Z,23.40
2022-10-13T14:19:02.318Z,23.34
2022-10-13T14:21:31.954Z,23.33
2022-10-13T14:24:04.757Z,23.31
2022-10-13T14:26:35.516Z,23.31
2022-10-13T14:29:06.079Z,23.46
2022-10-13T14:31:37.930Z,23.61
2022-10-13T14:34:06.308Z,23.61
2022-10-13T14:36:36.162Z,23.56
2022-10-13T14:39:05.056Z,23.49
2022-10-13T14:41:35.245Z,23.47
2022-10-13T14:44:05.753Z,23.57
2022-10-13T14:46:34.161Z,23.97
2022-10-13T14:49:02.988Z,24.31
2022-10-13T14:51:33.499Z,24.46
2022-10-13T14:54:06.456Z,24.54
2022-10-13T14:56:36.866Z,24.57
2022-10-13T14:59:07.800Z,24.53
2022-10-13T15:01:36.029Z,24.40
2022-10-13T15:04:08.103Z,24.21
2022-10-13T15:06:42.016Z,23.98
2022-10-13T15:09:14.499Z,23.75
2022-10-13T15:11:48.809Z,23.48
2022-10-13T15:14:17.986Z,23.22
2022-10-13T15:16:48.103Z,22.98
2022-10-13T15:19:16.862Z,22.79
2022-10-13T15:21:46.153Z,22.72
2022-10-13T15:24:17.362Z,22.70
2022-10-13T15:26:58.179Z,22.65
2022-10-13T15:29:27.675Z,22.58
2022-10-13T15:32:13.543Z,22.44
2022-10-13T15:34:53.038Z,22.34
2022-10-13T15:40:28.037Z,21.97
2022-10-13T15:42:57.947Z,21.81
2022-10-13T15:45:27.837Z,21.71
2022-10-13T15:48:07.768Z,21.62
2022-10-13T15:50:39.959Z,21.55
2022-10-13T15:53:08.721Z,21.45
2022-10-13T15:55:50.988Z,21.34
2022-10-13T15:58:25.544Z,21.30
2022-10-13T16:00:53.872Z,21.16
2022-10-13T16:03:22.443Z,21.11
2022-10-13T16:05:51.686Z,21.02
2022-10-13T16:08:20.335Z,21.00
2022-10-13T16:10:51.582Z,20.90
2022-10-13T16:13:21.343Z,20.88
2022-10-13T16:16:05.124Z,20.83
2022-10-13T16:18:39.442Z,20.82
2022-10-13T16:21:17.320Z,20.84
2022-10-13T16:23:55.929Z,20.90
2022-10-13T16:26:36.388Z,20.83
2022-10-13T16:29:06.335Z,20.76
2022-10-13T16:31:40.871Z,20.81
2022-10-13T16:34:17.135Z,20.80
2022-10-13T16:36:45.363Z,20.75
2022-10-13T16:39:13.589Z,20.74
2022-10-13T16:41:42.009Z,20.74
2022-10-13T16:44:15.847Z,20.72
2022-10-13T16:46:44.956Z,20.70
2022-10-13T16:49:13.732Z,20.68
2022-10-13T16:51:42.085Z,20.61
2022-10-13T16:54:10.220Z,20.52
2022-10-13T16:56:38.572Z,20.46
2022-10-13T16:59:07.928Z,20.42
2022-10-13T17:01:37.863Z,20.36
2022-10-13T17:04:06.554Z,20.31
2022-10-13T17:06:40.927Z,20.24
2022-10-13T17:09:14.602Z,20.18
2022-10-13T17:11:43.612Z,20.08
2022-10-13T17:14:12.386Z,19.98
2022-10-13T17:16:57.955Z,19.86
2022-10-13T17:19:26.741Z,19.78
2022-10-13T17:21:55.278Z,19.79
2022-10-13T17:24:24.061Z,19.72
2022-10-13T17:26:52.273Z,19.70
2022-10-13T17:29:20.652Z,19.68
2022-10-13T17:32:00.438Z,19.70
2022-10-13T17:34:28.781Z,19.65
2022-10-13T17:36:56.927Z,19.62
2022-10-13T17:39:24.847Z,19.61
2022-10-13T17:41:52.881Z,19.58
2022-10-13T17:44:21.432Z,19.52
2022-10-13T17:46:51.008Z,19.52
2022-10-13T17:49:19.351Z,19.48
2022-10-13T17:51:47.803Z,19.44
2022-10-13T17:54:16.789Z,19.40
2022-10-13T17:56:45.427Z,19.41
2022-10-13T17:59:13.870Z,19.41
2022-10-13T18:01:42.693Z,19.46
2022-10-13T18:04:15.484Z,19.47
2022-10-13T18:06:44.890Z,19.47
2022-10-13T18:09:15.191Z,19.52
2022-10-13T18:11:49.673Z,19.50
2022-10-13T18:14:18.310Z,19.48
2022-10-13T18:16:46.950Z,19.46
2022-10-13T18:19:16.788Z,19.43
2022-10-13T18:21:44.959Z,19.40
2022-10-13T18:24:13.368Z,19.40
2022-10-13T18:26:42.260Z,19.34
2022-10-13T18:29:12.168Z,19.30
2022-10-13T18:31:44.097Z,19.26
2022-10-13T18:34:15.121Z,19.22
2022-10-13T18:36:47.381Z,19.17
2022-10-13T18:39:18.152Z,19.13
2022-10-13T18:41:46.865Z,19.11
2022-10-13T18:44:15.400Z,19.10
2022-10-13T18:46:44.016Z,19.06
2022-10-13T18:49:14.525Z,19.01
2022-10-13T18:51:42.884Z,19.00
2022-10-13T18:54:13.005Z,18.94
2022-10-13T18:56:41.293Z,18.94
2022-10-13T18:59:10.063Z,18.92
2022-10-13T19:01:39.593Z,18.91
2022-10-13T19:04:15.255Z,18.92
2022-10-13T19:06:44.353Z,18.89
2022-10-13T19:09:26.562Z,18.85
2022-10-13T19:11:57.105Z,18.83
2022-10-13T19:14:25.784Z,18.79
2022-10-13T19:16:57.066Z,18.78
2022-10-13T19:19:28.032Z,18.74
2022-10-13T19:21:56.875Z,18.72
2022-10-13T19:24:26.631Z,18.70
2022-10-13T19:26:56.330Z,18.71
2022-10-13T19:29:24.675Z,18.67
2022-10-13T19:31:53.116Z,18.64
2022-10-13T19:34:21.436Z,18.65
2022-10-13T19:36:50.080Z,18.61
2022-10-13T19:39:21.458Z,18.59
2022-10-13T19:41:53.425Z,18.58
2022-10-13T19:44:23.563Z,18.53
2022-10-13T19:46:53.215Z,18.49
2022-10-13T19:49:23.632Z,18.48
2022-10-13T19:51:53.912Z,18.45
2022-10-13T19:54:23.191Z,18.42
2022-10-13T19:56:53.879Z,18.41
2022-10-13T19:59:22.252Z,18.38
2022-10-13T20:01:50.960Z,18.36
2022-10-13T20:04:21.115Z,18.34
2022-10-13T20:06:50.528Z,18.31
2022-10-13T20:09:18.854Z,18.26
2022-10-13T20:11:50.095Z,18.20
2022-10-13T20:14:20.306Z,18.17
2022-10-13T20:16:48.622Z,18.14
2022-10-13T20:19:19.612Z,18.11
2022-10-13T20:21:51.687Z,18.09
2022-10-13T20:24:20.795Z,18.06
2022-10-13T20:26:48.877Z,18.03
2022-10-13T20:29:17.325Z,18.00
2022-10-13T20:31:47.558Z,17.97
2022-10-13T20:34:15.803Z,17.97
2022-10-13T20:36:45.045Z,17.96
2022-10-13T20:39:13.175Z,17.99
2022-10-13T20:41:41.490Z,18.00
2022-10-13T20:44:11.302Z,17.98
2022-10-13T20:46:40.270Z,17.99
2022-10-13T20:49:12.274Z,18.01
2022-10-13T20:51:42.898Z,18.03
2022-10-13T20:54:11.983Z,18.01
2022-10-13T20:56:40.977Z,18.04
2022-10-13T20:59:10.787Z,18.02
2022-10-13T21:01:39.686Z,18.04
2022-10-13T21:04:10.326Z,18.06
2022-10-13T21:06:38.668Z,18.09
2022-10-13T21:09:07.389Z,18.09
2022-10-13T21:11:36.495Z,18.11
2022-10-13T21:14:07.103Z,18.15
2022-10-13T21:16:36.322Z,18.18
2022-10-13T21:19:04.984Z,18.22
2022-10-13T21:21:36.132Z,18.23
2022-10-13T21:24:07.590Z,18.26
2022-10-13T21:26:36.678Z,18.27
2022-10-13T21:29:06.383Z,18.31
2022-10-13T21:31:35.079Z,18.31
2022-10-13T21:34:03.494Z,18.33
2022-10-13T21:36:35.820Z,18.35
2022-10-13T21:39:27.360Z,18.37
2022-10-13T21:41:56.645Z,18.39
2022-10-13T21:44:28.099Z,18.40
2022-10-13T21:46:56.377Z,18.45
2022-10-13T21:49:24.660Z,18.47
2022-10-13T21:51:54.675Z,18.52
2022-10-13T21:54:23.259Z,18.53
2022-10-13T21:56:51.838Z,18.57
2022-10-13T21:59:20.165Z,18.60
2022-10-13T22:01:50.256Z,18.63
2022-10-13T22:04:22.852Z,18.65
2022-10-13T22:06:55.898Z,18.69
2022-10-13T22:09:25.756Z,18.67
2022-10-13T22:11:57.771Z,18.68
2022-10-13T22:14:30.805Z,18.66
2022-10-13T22:17:05.429Z,18.65
2022-10-13T22:19:35.052Z,18.70
2022-10-13T22:22:03.915Z,18.70
2022-10-13T22:24:35.687Z,18.71
2022-10-13T22:27:12.808Z,18.72
2022-10-13T22:29:43.301Z,18.70
2022-10-13T22:32:13.380Z,18.70
2022-10-13T22:34:44.287Z,18.69
2022-10-13T22:37:13.562Z,18.71
2022-10-13T22:39:43.239Z,18.71
2022-10-13T22:42:15.287Z,18.68
2022-10-13T22:44:43.874Z,18.69
2022-10-13T22:47:12.361Z,18.71
2022-10-13T22:49:41.483Z,18.74
2022-10-13T22:52:10.263Z,18.75
2022-10-13T22:54:38.514Z,18.73
2022-10-13T22:57:08.338Z,18.76
2022-10-13T22:59:36.831Z,18.76
2022-10-13T23:02:05.311Z,18.78
2022-10-13T23:04:33.739Z,18.83
2022-10-13T23:07:02.037Z,18.85
2022-10-13T23:09:31.143Z,18.86
2022-10-13T23:12:00.059Z,18.87
2022-10-13T23:14:29.836Z,18.87
2022-10-13T23:16:58.450Z,18.89
2022-10-13T23:19:27.700Z,18.91
2022-10-13T23:21:56.043Z,18.91
2022-10-13T23:24:24.345Z,18.93
2022-10-13T23:26:56.101Z,18.88
2022-10-13T23:29:24.389Z,18.95
2022-10-13T23:31:54.242Z,18.95
2022-10-13T23:34:23.135Z,18.93
2022-10-13T23:36:56.069Z,18.96
2022-10-13T23:39:24.451Z,18.93
2022-10-13T23:41:52.758Z,18.93
2022-10-13T23:44:20.959Z,18.91
2022-10-13T23:46:49.210Z,18.89
2022-10-13T23:49:19.098Z,18.89
2022-10-13T23:51:49.144Z,18.90
2022-10-13T23:54:17.238Z,18.86
2022-10-13T23:56:45.511Z,18.87
2022-10-13T23:59:13.791Z,18.82
